createdAt,value
2018-11-23T00:00:08.337Z,2.70
2018-11-23T00:02:53.445Z,2.70
2018-11-23T00:05:38.529Z,2.70
2018-11-23T00:08:23.585Z,2.70
2018-11-23T00:10:52.126Z,2.70
2018-11-23T00:13:20.688Z,2.70
2018-11-23T00:15:49.276Z,2.70
2018-11-23T00:18:17.832Z,2.60
2018-11-23T00:20:46.366Z,2.60
2018-11-23T00:23:15.025Z,2.60
2018-11-23T00:25:43.635Z,2.60
2018-11-23T00:28:12.234Z,2.60
2018-11-23T00:30:40.830Z,2.60
2018-11-23T00:33:09.437Z,2.60
2018-11-23T00:35:37.976Z,2.50
2018-11-23T00:38:06.676Z,2.50
2018-11-23T00:40:35.283Z,2.50
2018-11-23T00:43:03.912Z,2.60
2018-11-23T00:45:32.458Z,2.50
2018-11-23T00:48:01.403Z,2.50
2018-11-23T00:50:29.979Z,2.50
2018-11-23T00:52:59.712Z,2.50
2018-11-23T00:55:28.987Z,2.50
2018-11-23T00:57:57.568Z,2.50
2018-11-23T01:00:27.451Z,2.50
2018-11-23T01:02:56.835Z,2.40
2018-11-23T01:05:25.468Z,2.40
2018-11-23T01:07:54.074Z,2.40
2018-11-23T01:10:23.714Z,2.40
2018-11-23T01:12:53.358Z,2.40
2018-11-23T01:15:22.006Z,2.40
2018-11-23T01:17:50.556Z,2.30
2018-11-23T01:20:21.312Z,2.30
2018-11-23T01:22:50.340Z,2.30
2018-11-23T01:25:20.069Z,2.30
2018-11-23T01:27:49.858Z,2.30
2018-11-23T01:30:21.425Z,2.30
2018-11-23T01:32:50.049Z,2.30
2018-11-23T01:35:18.618Z,2.30
2018-11-23T01:37:47.183Z,2.30
2018-11-23T01:40:18.109Z,2.30
2018-11-23T01:42:47.028Z,2.30
2018-11-23T01:45:15.914Z,2.30
2018-11-23T01:47:44.535Z,2.30
2018-11-23T01:50:21.270Z,2.30
2018-11-23T01:52:50.576Z,2.20
2018-11-23T01:55:19.984Z,2.20
2018-11-23T01:57:48.730Z,2.20
2018-11-23T02:00:21.597Z,2.10
2018-11-23T02:02:50.950Z,2.10
2018-11-23T02:05:19.759Z,2.00
2018-11-23T02:07:48.340Z,2.00
2018-11-23T02:10:17.751Z,2.00
2018-11-23T02:12:46.320Z,2.00
2018-11-23T02:15:17.011Z,2.00
2018-11-23T02:17:45.744Z,2.00
2018-11-23T02:20:15.458Z,2.00
2018-11-23T02:22:44.044Z,2.00
2018-11-23T02:25:12.723Z,2.10
2018-11-23T02:27:41.283Z,2.10
2018-11-23T02:30:15.586Z,2.10
2018-11-23T02:32:44.478Z,2.00
2018-11-23T02:35:13.429Z,2.00
2018-11-23T02:37:41.998Z,2.10
2018-11-23T02:40:11.956Z,2.10
2018-11-23T02:42:40.575Z,2.10
2018-11-23T02:45:12.407Z,2.10
2018-11-23T02:47:41.528Z,2.10
2018-11-23T02:50:10.274Z,2.00
2018-11-23T02:52:39.515Z,2.00
2018-11-23T02:55:08.833Z,2.00
2018-11-23T02:57:37.449Z,2.00
2018-11-23T03:00:11.091Z,2.00
2018-11-23T03:02:39.751Z,2.10
2018-11-23T03:05:09.703Z,2.10
2018-11-23T03:07:38.415Z,2.10
2018-11-23T03:10:08.173Z,2.10
2018-11-23T03:12:36.850Z,2.10
2018-11-23T03:15:06.338Z,2.10
2018-11-23T03:17:35.052Z,2.10
2018-11-23T03:20:03.722Z,2.10
2018-11-23T03:22:32.346Z,2.10
2018-11-23T03:25:01.047Z,2.20
2018-11-23T03:27:29.597Z,2.20
2018-11-23T03:29:58.195Z,2.20
2018-11-23T03:32:26.837Z,2.30
2018-11-23T03:34:55.413Z,2.30
2018-11-23T03:37:24.091Z,2.30
2018-11-23T03:39:52.675Z,2.30
2018-11-23T03:42:21.225Z,2.30
2018-11-23T03:44:49.820Z,2.30
2018-11-23T03:47:18.400Z,2.30
2018-11-23T03:49:46.992Z,2.30
2018-11-23T03:52:15.598Z,2.30
2018-11-23T03:54:44.188Z,2.30
2018-11-23T03:57:12.764Z,2.30
2018-11-23T03:59:41.348Z,2.30
2018-11-23T04:02:09.955Z,2.20
2018-11-23T04:04:38.551Z,2.20
2018-11-23T04:07:07.158Z,2.20
2018-11-23T04:09:35.745Z,2.20
2018-11-23T04:12:04.376Z,2.10
2018-11-23T04:14:33.025Z,2.10
2018-11-23T04:17:01.719Z,2.10
2018-11-23T04:19:30.327Z,2.10
2018-11-23T04:21:58.917Z,2.10
2018-11-23T04:24:27.554Z,2.10
2018-11-23T04:26:56.141Z,2.00
2018-11-23T04:29:24.739Z,2.00
2018-11-23T04:31:53.374Z,2.10
2018-11-23T04:34:21.940Z,2.00
2018-11-23T04:36:50.581Z,2.00
2018-11-23T04:39:19.178Z,2.00
2018-11-23T04:41:47.722Z,2.00
2018-11-23T04:44:16.306Z,2.00
2018-11-23T04:46:44.972Z,2.10
2018-11-23T04:49:13.600Z,2.10
2018-11-23T04:51:42.178Z,2.00
2018-11-23T04:54:10.770Z,2.00
2018-11-23T04:56:39.348Z,2.00
2018-11-23T04:59:07.906Z,2.00
2018-11-23T05:01:36.852Z,2.00
2018-11-23T05:04:05.557Z,2.00
2018-11-23T05:06:34.084Z,2.00
2018-11-23T05:09:02.739Z,2.00
2018-11-23T05:11:31.309Z,2.00
2018-11-23T05:13:59.841Z,2.00
2018-11-23T05:16:28.407Z,2.00
2018-11-23T05:18:56.953Z,2.00
2018-11-23T05:21:25.592Z,2.00
2018-11-23T05:23:54.187Z,2.00
2018-11-23T05:26:22.736Z,2.00
2018-11-23T05:28:51.398Z,2.00
2018-11-23T05:31:19.998Z,2.10
2018-11-23T05:33:48.670Z,2.10
2018-11-23T05:36:17.257Z,2.10
2018-11-23T05:38:45.888Z,2.10
2018-11-23T05:41:14.470Z,2.10
2018-11-23T05:43:43.054Z,2.20
2018-11-23T05:46:11.663Z,2.20
2018-11-23T05:48:40.296Z,2.20
2018-11-23T05:51:08.892Z,2.30
2018-11-23T05:53:37.492Z,2.30
2018-11-23T05:56:06.721Z,2.30
2018-11-23T05:58:35.253Z,2.30
2018-11-23T06:01:03.798Z,2.40
2018-11-23T06:03:32.354Z,2.40
2018-11-23T06:06:00.887Z,2.40
2018-11-23T06:08:29.451Z,2.40
2018-11-23T06:10:58.076Z,2.40
2018-11-23T06:13:26.663Z,2.40
2018-11-23T06:15:55.217Z,2.40
2018-11-23T06:18:23.792Z,2.40
2018-11-23T06:20:52.365Z,2.40
2018-11-23T06:23:20.946Z,2.40
2018-11-23T06:25:55.849Z,2.30
2018-11-23T06:28:24.971Z,2.30
2018-11-23T06:30:53.678Z,2.20
2018-11-23T06:33:36.722Z,2.20
2018-11-23T06:36:05.523Z,2.10
2018-11-23T06:38:34.148Z,2.10
2018-11-23T06:41:02.746Z,2.10
2018-11-23T06:43:31.407Z,2.00
2018-11-23T06:46:01.146Z,2.00
2018-11-23T06:48:29.870Z,2.00
2018-11-23T06:50:58.579Z,2.00
2018-11-23T06:53:27.372Z,2.00
2018-11-23T06:55:56.643Z,2.10
2018-11-23T06:58:25.414Z,2.10
2018-11-23T07:00:54.459Z,2.20
2018-11-23T07:03:23.138Z,2.20
2018-11-23T07:05:51.813Z,2.30
2018-11-23T07:08:21.371Z,2.40
2018-11-23T07:10:50.057Z,2.40
2018-11-23T07:13:18.765Z,2.40
2018-11-23T07:15:47.461Z,2.40
2018-11-23T07:18:16.158Z,2.40
2018-11-23T07:20:44.915Z,2.50
2018-11-23T07:23:13.598Z,2.50
2018-11-23T07:25:42.398Z,2.50
2018-11-23T07:28:15.471Z,2.50
2018-11-23T07:30:39.831Z,2.60
2018-11-23T07:33:08.878Z,2.60
2018-11-23T07:35:37.566Z,2.60
2018-11-23T07:38:06.686Z,2.60
2018-11-23T07:40:48.462Z,2.70
2018-11-23T07:43:17.192Z,2.70
2018-11-23T07:45:45.826Z,2.70
2018-11-23T07:48:14.518Z,2.80
2018-11-23T07:50:43.193Z,2.80
2018-11-23T07:53:11.799Z,2.90
2018-11-23T07:55:40.461Z,2.90
2018-11-23T07:58:09.863Z,2.90
2018-11-23T08:00:38.595Z,2.90
2018-11-23T08:03:07.229Z,2.90
2018-11-23T08:05:35.882Z,3.00
2018-11-23T08:08:04.700Z,3.10
2018-11-23T08:10:32.538Z,3.00
2018-11-23T08:13:01.495Z,3.00
2018-11-23T08:15:30.166Z,3.20
2018-11-23T08:17:59.742Z,3.20
2018-11-23T08:20:28.331Z,3.20
2018-11-23T08:22:57.003Z,3.20
2018-11-23T08:25:26.407Z,3.20
2018-11-23T08:27:56.093Z,3.20
2018-11-23T08:30:26.064Z,3.10
2018-11-23T08:32:54.970Z,3.20
2018-11-23T08:35:23.655Z,3.20
2018-11-23T08:37:52.389Z,3.20
2018-11-23T08:40:22.543Z,3.20
2018-11-23T08:42:52.217Z,3.30
2018-11-23T08:45:22.178Z,3.30
2018-11-23T08:47:50.843Z,3.40
2018-11-23T08:50:28.537Z,3.60
2018-11-23T08:52:57.229Z,3.70
2018-11-23T08:55:25.946Z,3.80
2018-11-23T08:57:54.628Z,3.80
2018-11-23T09:00:24.420Z,3.90
2018-11-23T09:02:54.721Z,3.90
2018-11-23T09:05:23.717Z,3.90
2018-11-23T09:07:54.002Z,3.90
2018-11-23T09:10:24.480Z,4.10
2018-11-23T09:12:56.469Z,4.10
2018-11-23T09:15:25.081Z,4.10
2018-11-23T09:17:53.850Z,4.00
2018-11-23T09:20:22.544Z,4.00
2018-11-23T09:22:51.250Z,3.90
2018-11-23T09:25:21.204Z,4.00
2018-11-23T09:27:49.857Z,4.00
2018-11-23T09:30:24.906Z,4.10
2018-11-23T09:32:54.205Z,4.20
2018-11-23T09:35:23.003Z,4.20
2018-11-23T09:37:52.001Z,4.20
2018-11-23T09:40:22.856Z,4.20
2018-11-23T09:42:51.860Z,4.20
2018-11-23T09:45:21.859Z,4.10
2018-11-23T09:47:52.152Z,4.10
2018-11-23T09:50:21.953Z,4.10
2018-11-23T09:52:52.022Z,4.10
2018-11-23T09:55:21.400Z,4.20
2018-11-23T09:57:51.069Z,4.30
2018-11-23T10:00:24.039Z,4.50
2018-11-23T10:02:53.943Z,4.50
2018-11-23T10:05:23.152Z,4.70
2018-11-23T10:07:54.472Z,4.70
2018-11-23T10:10:23.778Z,4.90
2018-11-23T10:12:52.486Z,5.00
2018-11-23T10:15:21.971Z,5.10
2018-11-23T10:17:50.583Z,5.10
2018-11-23T10:20:23.501Z,5.20
2018-11-23T10:22:52.349Z,5.30
2018-11-23T10:25:27.297Z,5.40
2018-11-23T10:27:55.971Z,5.40
2018-11-23T10:30:27.239Z,5.40
2018-11-23T10:32:58.316Z,5.50
2018-11-23T10:35:27.415Z,5.60
2018-11-23T10:37:57.454Z,5.60
2018-11-23T10:40:27.596Z,5.60
2018-11-23T10:42:56.284Z,5.70
2018-11-23T10:45:26.374Z,5.80
2018-11-23T10:47:55.883Z,5.90
2018-11-23T10:50:26.290Z,6.10
2018-11-23T10:52:54.894Z,6.20
2018-11-23T10:55:25.162Z,6.30
2018-11-23T10:57:53.845Z,6.40
2018-11-23T11:00:27.751Z,6.50
2018-11-23T11:03:04.192Z,6.60
2018-11-23T11:05:41.947Z,6.60
2018-11-23T11:08:10.625Z,6.70
2018-11-23T11:10:39.285Z,6.70
2018-11-23T11:13:07.962Z,6.90
2018-11-23T11:15:36.669Z,7.10
2018-11-23T11:18:05.385Z,7.20
2018-11-23T11:20:34.023Z,7.30
2018-11-23T11:23:02.872Z,7.30
2018-11-23T11:25:31.480Z,7.40
2018-11-23T11:28:01.016Z,7.50
2018-11-23T11:30:29.682Z,7.70
2018-11-23T11:32:58.356Z,7.80
2018-11-23T11:35:27.033Z,8.00
2018-11-23T11:37:55.631Z,8.10
2018-11-23T11:40:24.287Z,8.10
2018-11-23T11:42:53.107Z,8.20
2018-11-23T11:45:21.715Z,8.20
2018-11-23T11:47:50.372Z,8.20
2018-11-23T11:50:19.631Z,8.30
2018-11-23T11:52:48.928Z,8.40
2018-11-23T11:55:19.889Z,8.40
2018-11-23T11:57:49.247Z,8.40
2018-11-23T12:00:19.916Z,8.40
2018-11-23T12:02:48.759Z,8.40
2018-11-23T12:05:17.424Z,8.20
2018-11-23T12:07:46.077Z,8.10
2018-11-23T12:10:17.004Z,8.10
2018-11-23T12:12:45.686Z,8.20
2018-11-23T12:15:15.018Z,8.30
2018-11-23T12:17:43.727Z,8.60
2018-11-23T12:20:15.337Z,8.70
2018-11-23T12:22:44.532Z,8.90
2018-11-23T12:25:13.221Z,9.00
2018-11-23T12:27:41.932Z,9.10
2018-11-23T12:30:12.448Z,9.20
2018-11-23T12:32:41.403Z,9.20
2018-11-23T12:35:11.488Z,9.30
2018-11-23T12:37:40.339Z,9.40
2018-11-23T12:40:11.015Z,9.60
2018-11-23T12:42:39.754Z,9.70
2018-11-23T12:45:10.321Z,9.70
2018-11-23T12:47:38.976Z,9.50
2018-11-23T12:50:12.050Z,9.70
2018-11-23T12:52:40.774Z,9.80
2018-11-23T12:55:10.124Z,10.00
2018-11-23T12:57:39.132Z,9.90
2018-11-23T13:00:30.347Z,9.90
2018-11-23T13:03:01.207Z,9.80
2018-11-23T13:05:30.680Z,9.80
2018-11-23T13:08:00.672Z,9.90
2018-11-23T13:10:29.775Z,10.00
2018-11-23T13:12:59.057Z,10.20
2018-11-23T13:15:27.673Z,10.40
2018-11-23T13:17:56.853Z,10.50
2018-11-23T13:20:25.574Z,10.70
2018-11-23T13:22:54.207Z,10.80
2018-11-23T13:25:24.520Z,10.70
2018-11-23T13:27:53.234Z,10.60
2018-11-23T13:30:27.324Z,10.50
2018-11-23T13:32:55.930Z,10.40
2018-11-23T13:35:24.589Z,10.30
2018-11-23T13:37:53.260Z,10.30
2018-11-23T13:40:23.154Z,10.30
2018-11-23T13:42:52.310Z,10.20
2018-11-23T13:45:22.372Z,10.20
2018-11-23T13:47:51.053Z,10.20
2018-11-23T13:50:20.985Z,10.20
2018-11-23T13:52:50.389Z,9.90
2018-11-23T13:55:19.044Z,9.60
2018-11-23T13:57:47.714Z,9.50
2018-11-23T14:00:21.621Z,9.30
2018-11-23T14:02:50.284Z,9.20
2018-11-23T14:05:23.318Z,9.10
2018-11-23T14:07:53.359Z,8.90
2018-11-23T14:10:23.183Z,8.80
2018-11-23T14:12:51.786Z,8.70
2018-11-23T14:15:22.822Z,8.60
2018-11-23T14:17:52.269Z,8.50
2018-11-23T14:20:21.726Z,8.50
2018-11-23T14:22:50.322Z,8.40
2018-11-23T14:25:21.191Z,8.40
2018-11-23T14:27:50.361Z,8.50
2018-11-23T14:30:23.899Z,8.60
2018-11-23T14:32:52.649Z,8.70
2018-11-23T14:35:22.911Z,8.80
2018-11-23T14:37:52.346Z,8.70
2018-11-23T14:40:20.995Z,8.70
2018-11-23T14:42:50.329Z,8.60
2018-11-23T14:45:25.403Z,8.60
2018-11-23T14:47:54.933Z,8.40
2018-11-23T14:50:27.964Z,8.40
2018-11-23T14:52:57.265Z,8.40
2018-11-23T14:55:26.251Z,8.20
2018-11-23T14:57:55.164Z,8.10
2018-11-23T15:00:27.502Z,8.00
2018-11-23T15:02:57.313Z,8.00
2018-11-23T15:05:26.000Z,7.90
2018-11-23T15:07:54.659Z,7.80
2018-11-23T15:10:24.852Z,7.80
2018-11-23T15:12:54.772Z,7.70
2018-11-23T15:15:25.005Z,7.70
2018-11-23T15:17:54.245Z,7.60
2018-11-23T15:20:28.399Z,7.50
2018-11-23T15:22:58.956Z,7.40
2018-11-23T15:25:27.973Z,7.30
2018-11-23T15:27:56.897Z,7.30
2018-11-23T15:30:28.021Z,7.20
2018-11-23T15:32:57.219Z,7.20
2018-11-23T15:35:26.425Z,7.10
2018-11-23T15:37:55.114Z,7.00
2018-11-23T15:40:25.321Z,7.00
2018-11-23T15:42:56.024Z,6.90
2018-11-23T15:45:25.852Z,6.90
2018-11-23T15:47:54.953Z,6.80
2018-11-23T15:50:25.039Z,6.80
2018-11-23T15:52:53.723Z,6.80
2018-11-23T15:55:24.668Z,6.70
2018-11-23T15:57:54.591Z,6.70
2018-11-23T16:00:27.631Z,6.70
2018-11-23T16:02:56.334Z,6.60
2018-11-23T16:05:25.027Z,6.60
2018-11-23T16:07:55.412Z,6.60
2018-11-23T16:10:26.696Z,6.50
2018-11-23T16:12:56.673Z,6.50
2018-11-23T16:15:26.085Z,6.50
2018-11-23T16:17:56.034Z,6.50
2018-11-23T16:20:27.176Z,6.50
2018-11-23T16:22:57.333Z,6.50
2018-11-23T16:25:26.014Z,6.50
2018-11-23T16:27:57.905Z,6.50
2018-11-23T16:30:27.871Z,6.50
2018-11-23T16:32:57.636Z,6.50
2018-11-23T16:35:27.449Z,6.40
2018-11-23T16:37:57.194Z,6.40
2018-11-23T16:40:28.229Z,6.40
2018-11-23T16:42:57.408Z,6.40
2018-11-23T16:45:27.329Z,6.40
2018-11-23T16:47:56.740Z,6.40
2018-11-23T16:50:25.786Z,6.40
2018-11-23T16:52:54.576Z,6.40
2018-11-23T16:55:23.773Z,6.30
2018-11-23T16:57:53.950Z,6.30
2018-11-23T17:00:24.733Z,6.30
2018-11-23T17:02:53.879Z,6.30
2018-11-23T17:05:24.047Z,6.30
2018-11-23T17:07:52.721Z,6.30
2018-11-23T17:10:21.357Z,6.30
2018-11-23T17:12:49.979Z,6.30
2018-11-23T17:15:20.762Z,6.20
2018-11-23T17:17:49.401Z,6.20
2018-11-23T17:20:19.449Z,6.10
2018-11-23T17:22:50.218Z,6.10
2018-11-23T17:25:19.422Z,6.10
2018-11-23T17:27:48.278Z,6.10
2018-11-23T17:30:19.448Z,6.00
2018-11-23T17:32:48.139Z,6.00
2018-11-23T17:35:16.841Z,6.00
2018-11-23T17:37:45.557Z,5.90
2018-11-23T17:40:15.927Z,5.90
2018-11-23T17:42:44.570Z,5.80
2018-11-23T17:45:17.791Z,5.80
2018-11-23T17:47:46.483Z,5.80
2018-11-23T17:50:17.891Z,5.80
2018-11-23T17:52:46.663Z,5.80
2018-11-23T17:55:15.452Z,5.80
2018-11-23T17:57:44.675Z,5.80
2018-11-23T18:00:15.669Z,5.80
2018-11-23T18:02:45.183Z,5.80
2018-11-23T18:05:15.038Z,5.80
2018-11-23T18:07:43.714Z,5.80
2018-11-23T18:10:14.857Z,5.70
2018-11-23T18:12:43.852Z,5.70
2018-11-23T18:15:14.864Z,5.60
2018-11-23T18:17:43.848Z,5.60
2018-11-23T18:20:14.793Z,5.60
2018-11-23T18:22:43.845Z,5.60
2018-11-23T18:25:17.512Z,5.60
2018-11-23T18:27:46.436Z,5.50
2018-11-23T18:30:15.019Z,5.50
2018-11-23T18:32:43.621Z,5.50
2018-11-23T18:35:13.603Z,5.50
2018-11-23T18:37:42.760Z,5.50
2018-11-23T18:40:12.515Z,5.50
2018-11-23T18:42:41.878Z,5.40
2018-11-23T18:45:13.246Z,5.40
2018-11-23T18:47:42.947Z,5.30
2018-11-23T18:50:14.097Z,5.30
2018-11-23T18:52:42.782Z,5.30
2018-11-23T18:55:17.933Z,5.30
2018-11-23T18:57:41.208Z,5.30
2018-11-23T19:00:17.340Z,5.30
2018-11-23T19:02:47.093Z,5.30
2018-11-23T19:05:17.375Z,5.30
2018-11-23T19:07:46.133Z,5.30
2018-11-23T19:10:15.092Z,5.30
2018-11-23T19:12:43.765Z,5.30
2018-11-23T19:15:13.941Z,5.20
2018-11-23T19:17:42.690Z,5.20
2018-11-23T19:20:17.689Z,5.20
2018-11-23T19:22:47.627Z,5.20
2018-11-23T19:25:16.404Z,5.20
2018-11-23T19:27:45.140Z,5.10
2018-11-23T19:30:18.178Z,5.10
2018-11-23T19:32:47.533Z,5.10
2018-11-23T19:35:16.325Z,5.00
2018-11-23T19:37:45.010Z,5.00
2018-11-23T19:40:14.823Z,5.00
2018-11-23T19:42:44.646Z,5.00
2018-11-23T19:45:16.965Z,5.00
2018-11-23T19:47:45.736Z,5.00
2018-11-23T19:50:16.533Z,5.00
2018-11-23T19:52:45.413Z,5.00
2018-11-23T19:55:15.183Z,4.90
2018-11-23T19:57:43.967Z,4.90
2018-11-23T20:00:16.977Z,4.90
2018-11-23T20:02:45.677Z,4.80
2018-11-23T20:05:14.393Z,4.80
2018-11-23T20:07:43.172Z,4.80
2018-11-23T20:10:15.736Z,4.90
2018-11-23T20:12:45.373Z,4.80
2018-11-23T20:15:15.979Z,4.80
2018-11-23T20:17:44.705Z,4.80
2018-11-23T20:20:14.412Z,4.80
2018-11-23T20:22:44.027Z,4.80
2018-11-23T20:25:15.615Z,4.70
2018-11-23T20:27:44.681Z,4.70
2018-11-23T20:30:18.355Z,4.60
2018-11-23T20:32:47.208Z,4.60
2018-11-23T20:35:16.894Z,4.60
2018-11-23T20:37:45.962Z,4.60
2018-11-23T20:40:21.207Z,4.60
2018-11-23T20:42:49.870Z,4.50
2018-11-23T20:45:18.548Z,4.50
2018-11-23T20:47:47.316Z,4.50
2018-11-23T20:50:17.025Z,4.40
2018-11-23T20:52:45.744Z,4.40
2018-11-23T20:55:19.797Z,4.30
2018-11-23T20:57:48.642Z,4.30
2018-11-23T21:00:20.417Z,4.30
2018-11-23T21:02:50.187Z,4.20
2018-11-23T21:05:20.860Z,4.30
2018-11-23T21:07:49.804Z,4.30
2018-11-23T21:10:21.563Z,4.30
2018-11-23T21:12:50.560Z,4.30
2018-11-23T21:15:23.332Z,4.30
2018-11-23T21:17:52.151Z,4.40
2018-11-23T21:20:20.900Z,4.30
2018-11-23T21:22:49.546Z,4.30
2018-11-23T21:25:18.231Z,4.20
2018-11-23T21:27:46.951Z,4.20
2018-11-23T21:30:16.873Z,4.10
2018-11-23T21:32:46.600Z,4.20
2018-11-23T21:35:15.408Z,4.20
2018-11-23T21:37:44.195Z,4.20
2018-11-23T21:40:15.030Z,4.20
2018-11-23T21:42:43.793Z,4.10
2018-11-23T21:45:14.579Z,4.10
2018-11-23T21:47:43.219Z,4.10
2018-11-23T21:50:15.979Z,4.10
2018-11-23T21:52:44.587Z,4.20
2018-11-23T21:55:25.932Z,4.10
2018-11-23T21:57:55.740Z,4.10
2018-11-23T22:00:24.491Z,4.20
2018-11-23T22:02:53.104Z,4.10
2018-11-23T22:05:21.812Z,4.10
2018-11-23T22:07:50.723Z,4.10
2018-11-23T22:10:20.402Z,4.00
2018-11-23T22:12:49.176Z,4.00
2018-11-23T22:15:21.526Z,4.00
2018-11-23T22:17:50.844Z,4.00
2018-11-23T22:20:20.545Z,3.90
2018-11-23T22:22:49.213Z,3.90
2018-11-23T22:25:19.148Z,3.90
2018-11-23T22:27:47.856Z,3.80
2018-11-23T22:30:21.803Z,3.80
2018-11-23T22:32:50.575Z,3.80
2018-11-23T22:35:19.368Z,3.80
2018-11-23T22:37:48.445Z,3.80
2018-11-23T22:40:18.237Z,3.80
2018-11-23T22:42:48.032Z,3.90
2018-11-23T22:45:17.309Z,3.80
2018-11-23T22:47:46.048Z,3.80
2018-11-23T22:50:16.922Z,3.70
2018-11-23T22:52:45.578Z,3.70
2018-11-23T22:55:15.072Z,3.60
2018-11-23T22:57:43.745Z,3.60
2018-11-23T23:00:21.375Z,3.60
2018-11-23T23:02:50.654Z,3.60
2018-11-23T23:05:20.525Z,3.50
2018-11-23T23:07:49.195Z,3.50
2018-11-23T23:10:17.885Z,3.50
2018-11-23T23:12:46.793Z,3.40
2018-11-23T23:15:15.563Z,3.40
2018-11-23T23:17:44.251Z,3.40
2018-11-23T23:20:15.048Z,3.40
2018-11-23T23:22:43.679Z,3.40
2018-11-23T23:25:12.783Z,3.40
2018-11-23T23:27:41.374Z,3.30
2018-11-23T23:30:13.012Z,3.30
2018-11-23T23:32:41.653Z,3.30
2018-11-23T23:35:11.206Z,3.30
2018-11-23T23:37:39.972Z,3.20
2018-11-23T23:40:16.174Z,3.20
2018-11-23T23:42:44.898Z,3.10
2018-11-23T23:45:14.668Z,3.20
2018-11-23T23:47:43.343Z,3.10
2018-11-23T23:50:14.061Z,3.10
2018-11-23T23:52:42.726Z,3.10
2018-11-23T23:55:11.524Z,3.00
2018-11-23T23:57:41.195Z,3.00
